sensor_id;sensor_type;location;lat;lon;timestamp;temperature;humidity
44729;DHT22;30457;53.590;9.922;2023-08-24T00:03:19;24.90;49.30
44729;DHT22;30457;53.590;9.922;2023-08-24T00:07:46;24.90;49.20
44729;DHT22;30457;53.590;9.922;2023-08-24T00:12:13;24.90;49.40
44729;DHT22;30457;53.590;9.922;2023-08-24T00:16:39;24.80;49.40
44729;DHT22;30457;53.590;9.922;2023-08-24T00:21:06;24.80;50.00
44729;DHT22;30457;53.590;9.922;2023-08-24T00:25:33;24.80;49.30
44729;DHT22;30457;53.590;9.922;2023-08-24T00:29:58;24.70;49.30
44729;DHT22;30457;53.590;9.922;2023-08-24T00:34:24;24.70;49.60
44729;DHT22;30457;53.590;9.922;2023-08-24T00:38:49;24.70;49.70
44729;DHT22;30457;53.590;9.922;2023-08-24T00:43:16;24.60;49.70
44729;DHT22;30457;53.590;9.922;2023-08-24T00:47:44;24.50;49.70
44729;DHT22;30457;53.590;9.922;2023-08-24T00:52:11;24.50;49.80
44729;DHT22;30457;53.590;9.922;2023-08-24T00:56:37;24.50;49.90
44729;DHT22;30457;53.590;9.922;2023-08-24T01:01:03;24.40;50.00
44729;DHT22;30457;53.590;9.922;2023-08-24T01:05:29;24.30;50.00
44729;DHT22;30457;53.590;9.922;2023-08-24T01:09:55;24.30;50.10
44729;DHT22;30457;53.590;9.922;2023-08-24T01:14:41;24.30;50.20
44729;DHT22;30457;53.590;9.922;2023-08-24T01:19:21;24.20;50.60
44729;DHT22;30457;53.590;9.922;2023-08-24T01:24:17;24.10;50.70
44729;DHT22;30457;53.590;9.922;2023-08-24T01:28:45;24.10;50.60
44729;DHT22;30457;53.590;9.922;2023-08-24T01:33:11;24.10;50.30
44729;DHT22;30457;53.590;9.922;2023-08-24T01:37:37;24.00;50.40
44729;DHT22;30457;53.590;9.922;2023-08-24T01:42:05;24.00;50.50
44729;DHT22;30457;53.590;9.922;2023-08-24T01:46:36;23.90;50.70
44729;DHT22;30457;53.590;9.922;2023-08-24T01:51:04;23.90;50.40
44729;DHT22;30457;53.590;9.922;2023-08-24T01:55:30;23.80;50.40
44729;DHT22;30457;53.590;9.922;2023-08-24T01:59:56;23.80;50.30
44729;DHT22;30457;53.590;9.922;2023-08-24T02:04:22;23.70;50.50
44729;DHT22;30457;53.590;9.922;2023-08-24T02:08:47;23.70;50.50
44729;DHT22;30457;53.590;9.922;2023-08-24T02:13:13;23.60;50.50
44729;DHT22;30457;53.590;9.922;2023-08-24T02:17:38;23.60;50.40
44729;DHT22;30457;53.590;9.922;2023-08-24T02:22:04;23.60;50.60
44729;DHT22;30457;53.590;9.922;2023-08-24T02:26:29;23.50;50.50
44729;DHT22;30457;53.590;9.922;2023-08-24T02:31:00;23.40;50.60
44729;DHT22;30457;53.590;9.922;2023-08-24T02:35:26;23.30;50.90
44729;DHT22;30457;53.590;9.922;2023-08-24T02:39:51;23.30;50.40
44729;DHT22;30457;53.590;9.922;2023-08-24T02:44:17;23.20;50.60
44729;DHT22;30457;53.590;9.922;2023-08-24T02:48:43;23.20;50.70
44729;DHT22;30457;53.590;9.922;2023-08-24T02:53:08;23.20;50.90
44729;DHT22;30457;53.590;9.922;2023-08-24T02:57:34;23.10;50.90
44729;DHT22;30457;53.590;9.922;2023-08-24T03:02:02;23.10;51.00
44729;DHT22;30457;53.590;9.922;2023-08-24T03:06:28;23.00;51.00
44729;DHT22;30457;53.590;9.922;2023-08-24T03:10:53;23.00;51.20
44729;DHT22;30457;53.590;9.922;2023-08-24T03:15:19;22.90;51.10
44729;DHT22;30457;53.590;9.922;2023-08-24T03:19:46;22.90;51.10
44729;DHT22;30457;53.590;9.922;2023-08-24T03:24:12;22.90;51.40
44729;DHT22;30457;53.590;9.922;2023-08-24T03:28:38;22.80;51.20
44729;DHT22;30457;53.590;9.922;2023-08-24T03:33:05;22.80;51.30
44729;DHT22;30457;53.590;9.922;2023-08-24T03:37:30;22.70;51.30
44729;DHT22;30457;53.590;9.922;2023-08-24T03:41:56;22.60;51.30
44729;DHT22;30457;53.590;9.922;2023-08-24T03:46:21;22.60;51.40
44729;DHT22;30457;53.590;9.922;2023-08-24T03:50:47;22.50;51.40
44729;DHT22;30457;53.590;9.922;2023-08-24T03:55:13;22.50;51.50
44729;DHT22;30457;53.590;9.922;2023-08-24T03:59:38;22.50;51.50
44729;DHT22;30457;53.590;9.922;2023-08-24T04:04:04;22.40;51.50
44729;DHT22;30457;53.590;9.922;2023-08-24T04:08:30;22.40;51.70
44729;DHT22;30457;53.590;9.922;2023-08-24T04:12:56;22.30;51.60
44729;DHT22;30457;53.590;9.922;2023-08-24T04:17:22;22.30;51.60
44729;DHT22;30457;53.590;9.922;2023-08-24T04:21:47;22.30;51.90
44729;DHT22;30457;53.590;9.922;2023-08-24T04:26:13;22.20;52.00
44729;DHT22;30457;53.590;9.922;2023-08-24T04:30:39;22.20;52.00
44729;DHT22;30457;53.590;9.922;2023-08-24T04:35:05;22.20;52.10
44729;DHT22;30457;53.590;9.922;2023-08-24T04:39:31;22.10;52.50
44729;DHT22;30457;53.590;9.922;2023-08-24T04:43:56;22.10;52.20
44729;DHT22;30457;53.590;9.922;2023-08-24T04:48:23;22.10;52.20
44729;DHT22;30457;53.590;9.922;2023-08-24T04:52:49;22.10;52.20
44729;DHT22;30457;53.590;9.922;2023-08-24T04:57:14;22.00;52.20
44729;DHT22;30457;53.590;9.922;2023-08-24T05:01:40;22.00;52.30
44729;DHT22;30457;53.590;9.922;2023-08-24T05:06:05;22.00;52.40
44729;DHT22;30457;53.590;9.922;2023-08-24T05:10:32;22.00;52.40
44729;DHT22;30457;53.590;9.922;2023-08-24T05:14:58;22.00;52.60
44729;DHT22;30457;53.590;9.922;2023-08-24T05:19:23;21.90;52.80
44729;DHT22;30457;53.590;9.922;2023-08-24T05:23:49;22.00;53.00
44729;DHT22;30457;53.590;9.922;2023-08-24T05:28:14;22.00;53.20
44729;DHT22;30457;53.590;9.922;2023-08-24T05:32:40;22.00;53.40
44729;DHT22;30457;53.590;9.922;2023-08-24T05:37:06;22.10;53.70
44729;DHT22;30457;53.590;9.922;2023-08-24T05:41:31;22.10;53.80
44729;DHT22;30457;53.590;9.922;2023-08-24T05:45:57;22.20;54.30
44729;DHT22;30457;53.590;9.922;2023-08-24T05:50:23;22.30;54.40
44729;DHT22;30457;53.590;9.922;2023-08-24T05:54:48;22.40;54.50
44729;DHT22;30457;53.590;9.922;2023-08-24T05:59:14;22.50;54.50
44729;DHT22;30457;53.590;9.922;2023-08-24T06:03:40;22.60;54.50
44729;DHT22;30457;53.590;9.922;2023-08-24T06:08:05;22.70;54.30
44729;DHT22;30457;53.590;9.922;2023-08-24T06:12:31;22.80;54.30
44729;DHT22;30457;53.590;9.922;2023-08-24T06:16:56;23.00;54.20
44729;DHT22;30457;53.590;9.922;2023-08-24T06:21:22;23.10;54.10
44729;DHT22;30457;53.590;9.922;2023-08-24T06:25:48;23.20;53.80
44729;DHT22;30457;53.590;9.922;2023-08-24T06:30:13;23.40;53.60
44729;DHT22;30457;53.590;9.922;2023-08-24T06:34:39;23.50;53.10
44729;DHT22;30457;53.590;9.922;2023-08-24T06:39:04;23.60;52.90
44729;DHT22;30457;53.590;9.922;2023-08-24T06:43:30;23.70;52.60
44729;DHT22;30457;53.590;9.922;2023-08-24T06:47:55;23.90;52.30
44729;DHT22;30457;53.590;9.922;2023-08-24T06:52:21;24.00;52.30
44729;DHT22;30457;53.590;9.922;2023-08-24T06:56:47;24.10;52.10
44729;DHT22;30457;53.590;9.922;2023-08-24T07:01:12;24.30;52.10
44729;DHT22;30457;53.590;9.922;2023-08-24T07:05:38;24.40;51.80
44729;DHT22;30457;53.590;9.922;2023-08-24T07:10:04;24.50;51.40
44729;DHT22;30457;53.590;9.922;2023-08-24T07:14:29;24.70;51.50
44729;DHT22;30457;53.590;9.922;2023-08-24T07:18:55;24.70;51.30
44729;DHT22;30457;53.590;9.922;2023-08-24T07:23:21;24.90;50.80
44729;DHT22;30457;53.590;9.922;2023-08-24T07:27:46;25.00;50.80
44729;DHT22;30457;53.590;9.922;2023-08-24T07:32:12;25.10;50.50
44729;DHT22;30457;53.590;9.922;2023-08-24T07:36:38;25.20;50.20
44729;DHT22;30457;53.590;9.922;2023-08-24T07:41:03;25.40;50.10
44729;DHT22;30457;53.590;9.922;2023-08-24T07:45:29;25.50;49.70
44729;DHT22;30457;53.590;9.922;2023-08-24T07:49:55;25.70;49.50
44729;DHT22;30457;53.590;9.922;2023-08-24T07:54:20;25.80;49.40
44729;DHT22;30457;53.590;9.922;2023-08-24T07:58:46;26.00;49.40
44729;DHT22;30457;53.590;9.922;2023-08-24T08:03:11;26.20;49.10
44729;DHT22;30457;53.590;9.922;2023-08-24T08:07:37;26.30;49.00
44729;DHT22;30457;53.590;9.922;2023-08-24T08:12:03;26.50;49.00
44729;DHT22;30457;53.590;9.922;2023-08-24T08:16:29;26.60;48.40
44729;DHT22;30457;53.590;9.922;2023-08-24T08:20:54;26.90;48.20
44729;DHT22;30457;53.590;9.922;2023-08-24T08:25:20;27.00;47.70
44729;DHT22;30457;53.590;9.922;2023-08-24T08:29:50;27.20;47.60
44729;DHT22;30457;53.590;9.922;2023-08-24T08:34:16;27.30;47.00
44729;DHT22;30457;53.590;9.922;2023-08-24T08:38:41;27.50;46.60
44729;DHT22;30457;53.590;9.922;2023-08-24T08:43:07;27.60;46.70
44729;DHT22;30457;53.590;9.922;2023-08-24T08:47:33;27.80;46.10
44729;DHT22;30457;53.590;9.922;2023-08-24T08:51:58;27.90;46.00
44729;DHT22;30457;53.590;9.922;2023-08-24T08:56:24;28.10;46.20
44729;DHT22;30457;53.590;9.922;2023-08-24T09:00:49;28.20;45.20
44729;DHT22;30457;53.590;9.922;2023-08-24T09:05:16;28.40;45.40
44729;DHT22;30457;53.590;9.922;2023-08-24T09:09:43;28.50;45.20
44729;DHT22;30457;53.590;9.922;2023-08-24T09:14:08;28.60;44.30
44729;DHT22;30457;53.590;9.922;2023-08-24T09:18:39;28.70;44.00
44729;DHT22;30457;53.590;9.922;2023-08-24T09:23:06;28.80;43.80
44729;DHT22;30457;53.590;9.922;2023-08-24T09:27:42;28.90;44.20
44729;DHT22;30457;53.590;9.922;2023-08-24T09:32:08;29.00;43.50
44729;DHT22;30457;53.590;9.922;2023-08-24T09:36:35;29.20;43.40
44729;DHT22;30457;53.590;9.922;2023-08-24T09:41:01;29.30;43.10
44729;DHT22;30457;53.590;9.922;2023-08-24T09:45:27;29.40;43.60
44729;DHT22;30457;53.590;9.922;2023-08-24T09:49:52;29.50;43.80
44729;DHT22;30457;53.590;9.922;2023-08-24T09:54:20;29.70;43.50
44729;DHT22;30457;53.590;9.922;2023-08-24T09:58:48;29.90;43.10
44729;DHT22;30457;53.590;9.922;2023-08-24T10:03:19;30.10;42.90
44729;DHT22;30457;53.590;9.922;2023-08-24T10:07:54;30.30;42.40
44729;DHT22;30457;53.590;9.922;2023-08-24T10:12:25;30.40;41.30
44729;DHT22;30457;53.590;9.922;2023-08-24T10:16:52;30.50;42.10
44729;DHT22;30457;53.590;9.922;2023-08-24T10:21:19;30.70;41.90
44729;DHT22;30457;53.590;9.922;2023-08-24T10:25:46;30.80;41.50
44729;DHT22;30457;53.590;9.922;2023-08-24T10:30:13;30.90;41.20
44729;DHT22;30457;53.590;9.922;2023-08-24T10:34:38;31.10;40.60
44729;DHT22;30457;53.590;9.922;2023-08-24T10:39:05;31.10;40.50
44729;DHT22;30457;53.590;9.922;2023-08-24T10:43:38;31.20;40.20
44729;DHT22;30457;53.590;9.922;2023-08-24T10:48:04;31.20;39.00
44729;DHT22;30457;53.590;9.922;2023-08-24T10:52:30;31.30;39.30
44729;DHT22;30457;53.590;9.922;2023-08-24T10:56:57;31.40;40.30
44729;DHT22;30457;53.590;9.922;2023-08-24T11:01:24;31.50;40.20
44729;DHT22;30457;53.590;9.922;2023-08-24T11:05:51;31.60;39.90
44729;DHT22;30457;53.590;9.922;2023-08-24T11:10:17;31.60;39.20
44729;DHT22;30457;53.590;9.922;2023-08-24T11:14:50;31.70;39.50
44729;DHT22;30457;53.590;9.922;2023-08-24T11:19:27;31.70;38.70
44729;DHT22;30457;53.590;9.922;2023-08-24T11:23:52;31.80;38.60
44729;DHT22;30457;53.590;9.922;2023-08-24T11:28:19;31.80;38.70
44729;DHT22;30457;53.590;9.922;2023-08-24T11:32:51;32.00;38.30
44729;DHT22;30457;53.590;9.922;2023-08-24T11:37:19;32.00;37.40
44729;DHT22;30457;53.590;9.922;2023-08-24T11:41:56;32.10;38.40
44729;DHT22;30457;53.590;9.922;2023-08-24T11:46:21;32.20;38.10
44729;DHT22;30457;53.590;9.922;2023-08-24T11:50:47;32.30;37.70
44729;DHT22;30457;53.590;9.922;2023-08-24T11:55:13;32.50;36.90
44729;DHT22;30457;53.590;9.922;2023-08-24T11:59:40;32.60;37.20
44729;DHT22;30457;53.590;9.922;2023-08-24T12:04:06;32.60;36.20
44729;DHT22;30457;53.590;9.922;2023-08-24T12:08:37;32.70;35.90
44729;DHT22;30457;53.590;9.922;2023-08-24T12:13:05;32.70;36.00
44729;DHT22;30457;53.590;9.922;2023-08-24T12:17:42;32.80;36.80
44729;DHT22;30457;53.590;9.922;2023-08-24T12:22:08;32.80;35.20
44729;DHT22;30457;53.590;9.922;2023-08-24T12:26:37;32.90;36.50
44729;DHT22;30457;53.590;9.922;2023-08-24T12:31:03;32.90;36.10
44729;DHT22;30457;53.590;9.922;2023-08-24T12:35:29;33.00;36.40
44729;DHT22;30457;53.590;9.922;2023-08-24T12:39:54;33.10;36.20
44729;DHT22;30457;53.590;9.922;2023-08-24T12:44:20;33.10;36.20
44729;DHT22;30457;53.590;9.922;2023-08-24T12:48:45;33.20;36.30
44729;DHT22;30457;53.590;9.922;2023-08-24T12:53:11;33.20;36.60
44729;DHT22;30457;53.590;9.922;2023-08-24T12:57:36;33.20;36.20
44729;DHT22;30457;53.590;9.922;2023-08-24T13:02:02;33.20;36.60
44729;DHT22;30457;53.590;9.922;2023-08-24T13:06:29;33.20;36.90
44729;DHT22;30457;53.590;9.922;2023-08-24T13:10:55;33.30;36.60
44729;DHT22;30457;53.590;9.922;2023-08-24T13:15:20;33.40;35.60
44729;DHT22;30457;53.590;9.922;2023-08-24T13:19:46;33.40;36.20
44729;DHT22;30457;53.590;9.922;2023-08-24T13:24:14;33.60;35.60
44729;DHT22;30457;53.590;9.922;2023-08-24T13:28:39;33.60;35.10
44729;DHT22;30457;53.590;9.922;2023-08-24T13:33:05;33.60;35.80
44729;DHT22;30457;53.590;9.922;2023-08-24T13:37:31;33.60;35.20
44729;DHT22;30457;53.590;9.922;2023-08-24T13:41:57;33.60;35.80
44729;DHT22;30457;53.590;9.922;2023-08-24T13:46:22;33.60;35.10
44729;DHT22;30457;53.590;9.922;2023-08-24T13:50:51;33.50;35.30
44729;DHT22;30457;53.590;9.922;2023-08-24T13:55:20;33.50;35.50
44729;DHT22;30457;53.590;9.922;2023-08-24T13:59:45;33.40;35.50
44729;DHT22;30457;53.590;9.922;2023-08-24T14:04:11;33.40;35.40
44729;DHT22;30457;53.590;9.922;2023-08-24T14:08:37;33.30;35.20
44729;DHT22;30457;53.590;9.922;2023-08-24T14:13:02;33.30;35.80
44729;DHT22;30457;53.590;9.922;2023-08-24T14:17:28;33.20;36.10
44729;DHT22;30457;53.590;9.922;2023-08-24T14:21:54;33.10;35.70
44729;DHT22;30457;53.590;9.922;2023-08-24T14:26:23;33.10;36.00
44729;DHT22;30457;53.590;9.922;2023-08-24T14:30:52;33.10;36.00
44729;DHT22;30457;53.590;9.922;2023-08-24T14:35:18;33.20;35.80
44729;DHT22;30457;53.590;9.922;2023-08-24T14:39:43;33.10;35.30
44729;DHT22;30457;53.590;9.922;2023-08-24T14:44:09;33.10;35.60
44729;DHT22;30457;53.590;9.922;2023-08-24T14:48:34;33.00;35.50
44729;DHT22;30457;53.590;9.922;2023-08-24T14:53:00;32.90;35.40
44729;DHT22;30457;53.590;9.922;2023-08-24T14:57:25;32.80;36.00
44729;DHT22;30457;53.590;9.922;2023-08-24T15:01:51;32.70;36.00
44729;DHT22;30457;53.590;9.922;2023-08-24T15:06:18;32.60;35.90
44729;DHT22;30457;53.590;9.922;2023-08-24T15:10:44;32.50;36.10
44729;DHT22;30457;53.590;9.922;2023-08-24T15:15:10;32.50;36.30
44729;DHT22;30457;53.590;9.922;2023-08-24T15:19:35;32.40;36.50
44729;DHT22;30457;53.590;9.922;2023-08-24T15:24:01;32.40;36.40
44729;DHT22;30457;53.590;9.922;2023-08-24T15:28:34;32.40;36.20
44729;DHT22;30457;53.590;9.922;2023-08-24T15:33:01;32.30;36.00
44729;DHT22;30457;53.590;9.922;2023-08-24T15:37:27;32.30;36.10
44729;DHT22;30457;53.590;9.922;2023-08-24T15:41:53;32.20;36.20
44729;DHT22;30457;53.590;9.922;2023-08-24T15:46:19;32.10;36.20
44729;DHT22;30457;53.590;9.922;2023-08-24T15:50:44;32.10;36.40
44729;DHT22;30457;53.590;9.922;2023-08-24T15:55:10;31.90;36.50
44729;DHT22;30457;53.590;9.922;2023-08-24T15:59:35;31.90;36.50
44729;DHT22;30457;53.590;9.922;2023-08-24T16:04:01;31.80;36.60
44729;DHT22;30457;53.590;9.922;2023-08-24T16:08:27;31.80;36.90
44729;DHT22;30457;53.590;9.922;2023-08-24T16:12:53;31.70;37.20
44729;DHT22;30457;53.590;9.922;2023-08-24T16:17:18;31.60;37.20
44729;DHT22;30457;53.590;9.922;2023-08-24T16:21:44;31.60;37.50
44729;DHT22;30457;53.590;9.922;2023-08-24T16:26:10;31.50;37.60
44729;DHT22;30457;53.590;9.922;2023-08-24T16:30:35;31.40;37.60
44729;DHT22;30457;53.590;9.922;2023-08-24T16:35:01;31.40;38.10
44729;DHT22;30457;53.590;9.922;2023-08-24T16:39:27;31.30;38.40
44729;DHT22;30457;53.590;9.922;2023-08-24T16:43:54;31.30;38.60
44729;DHT22;30457;53.590;9.922;2023-08-24T16:48:20;31.20;39.70
44729;DHT22;30457;53.590;9.922;2023-08-24T16:52:46;31.20;39.00
44729;DHT22;30457;53.590;9.922;2023-08-24T16:57:12;31.10;38.80
44729;DHT22;30457;53.590;9.922;2023-08-24T17:01:37;31.10;38.70
44729;DHT22;30457;53.590;9.922;2023-08-24T17:06:03;31.10;39.10
44729;DHT22;30457;53.590;9.922;2023-08-24T17:10:29;31.00;39.00
44729;DHT22;30457;53.590;9.922;2023-08-24T17:14:54;30.90;38.90
44729;DHT22;30457;53.590;9.922;2023-08-24T17:19:20;30.90;39.20
44729;DHT22;30457;53.590;9.922;2023-08-24T17:23:45;30.90;39.40
44729;DHT22;30457;53.590;9.922;2023-08-24T17:28:11;30.80;39.40
44729;DHT22;30457;53.590;9.922;2023-08-24T17:32:37;30.70;39.40
44729;DHT22;30457;53.590;9.922;2023-08-24T17:37:02;30.70;39.70
44729;DHT22;30457;53.590;9.922;2023-08-24T17:41:28;30.60;39.70
44729;DHT22;30457;53.590;9.922;2023-08-24T17:45:53;30.50;39.80
44729;DHT22;30457;53.590;9.922;2023-08-24T17:50:19;30.50;39.80
44729;DHT22;30457;53.590;9.922;2023-08-24T17:54:44;30.40;40.00
44729;DHT22;30457;53.590;9.922;2023-08-24T17:59:10;30.30;40.20
44729;DHT22;30457;53.590;9.922;2023-08-24T18:03:35;30.20;40.80
44729;DHT22;30457;53.590;9.922;2023-08-24T18:08:01;30.20;40.30
44729;DHT22;30457;53.590;9.922;2023-08-24T18:12:27;30.10;40.30
44729;DHT22;30457;53.590;9.922;2023-08-24T18:16:52;30.00;40.60
44729;DHT22;30457;53.590;9.922;2023-08-24T18:21:18;29.90;40.40
44729;DHT22;30457;53.590;9.922;2023-08-24T18:25:43;29.80;40.50
44729;DHT22;30457;53.590;9.922;2023-08-24T18:30:09;29.70;40.60
44729;DHT22;30457;53.590;9.922;2023-08-24T18:34:35;29.60;40.90
44729;DHT22;30457;53.590;9.922;2023-08-24T18:39:01;29.50;41.20
44729;DHT22;30457;53.590;9.922;2023-08-24T18:43:27;29.40;41.20
44729;DHT22;30457;53.590;9.922;2023-08-24T18:47:54;29.40;41.40
44729;DHT22;30457;53.590;9.922;2023-08-24T18:52:19;29.30;41.40
44729;DHT22;30457;53.590;9.922;2023-08-24T18:56:45;29.20;41.60
44729;DHT22;30457;53.590;9.922;2023-08-24T19:01:13;29.10;41.80
44729;DHT22;30457;53.590;9.922;2023-08-24T19:05:39;29.10;41.90
44729;DHT22;30457;53.590;9.922;2023-08-24T19:10:05;29.00;41.90
44729;DHT22;30457;53.590;9.922;2023-08-24T19:14:31;28.90;42.00
44729;DHT22;30457;53.590;9.922;2023-08-24T19:19:00;28.90;42.00
44729;DHT22;30457;53.590;9.922;2023-08-24T19:23:25;28.90;42.20
44729;DHT22;30457;53.590;9.922;2023-08-24T19:27:51;28.80;42.10
44729;DHT22;30457;53.590;9.922;2023-08-24T19:32:16;28.70;42.20
44729;DHT22;30457;53.590;9.922;2023-08-24T19:36:42;28.60;42.30
44729;DHT22;30457;53.590;9.922;2023-08-24T19:41:08;28.50;42.60
44729;DHT22;30457;53.590;9.922;2023-08-24T19:45:37;28.50;42.40
44729;DHT22;30457;53.590;9.922;2023-08-24T19:50:03;28.40;42.70
44729;DHT22;30457;53.590;9.922;2023-08-24T19:54:28;28.40;42.60
44729;DHT22;30457;53.590;9.922;2023-08-24T19:58:54;28.40;42.60
44729;DHT22;30457;53.590;9.922;2023-08-24T20:03:19;28.40;42.70
44729;DHT22;30457;53.590;9.922;2023-08-24T20:07:45;28.30;42.90
44729;DHT22;30457;53.590;9.922;2023-08-24T20:12:13;28.30;42.90
44729;DHT22;30457;53.590;9.922;2023-08-24T20:16:39;28.20;43.00
44729;DHT22;30457;53.590;9.922;2023-08-24T20:21:05;28.20;43.10
44729;DHT22;30457;53.590;9.922;2023-08-24T20:25:31;28.20;43.20
44729;DHT22;30457;53.590;9.922;2023-08-24T20:29:56;28.20;43.30
44729;DHT22;30457;53.590;9.922;2023-08-24T20:34:22;28.10;43.30
44729;DHT22;30457;53.590;9.922;2023-08-24T20:38:47;28.10;43.20
44729;DHT22;30457;53.590;9.922;2023-08-24T20:43:13;28.10;43.30
44729;DHT22;30457;53.590;9.922;2023-08-24T20:47:39;28.00;43.30
44729;DHT22;30457;53.590;9.922;2023-08-24T20:52:05;28.00;43.60
44729;DHT22;30457;53.590;9.922;2023-08-24T20:56:30;28.00;43.50
44729;DHT22;30457;53.590;9.922;2023-08-24T21:01:03;27.90;43.80
44729;DHT22;30457;53.590;9.922;2023-08-24T21:05:29;27.90;43.80
44729;DHT22;30457;53.590;9.922;2023-08-24T21:09:54;27.80;44.20
44729;DHT22;30457;53.590;9.922;2023-08-24T21:14:21;27.80;44.70
44729;DHT22;30457;53.590;9.922;2023-08-24T21:18:46;27.70;45.00
44729;DHT22;30457;53.590;9.922;2023-08-24T21:23:12;27.60;45.40
44729;DHT22;30457;53.590;9.922;2023-08-24T21:27:38;27.50;45.60
44729;DHT22;30457;53.590;9.922;2023-08-24T21:32:04;27.40;45.80
44729;DHT22;30457;53.590;9.922;2023-08-24T21:36:29;27.40;46.20
44729;DHT22;30457;53.590;9.922;2023-08-24T21:40:55;27.30;46.30
44729;DHT22;30457;53.590;9.922;2023-08-24T21:45:21;27.20;46.50
44729;DHT22;30457;53.590;9.922;2023-08-24T21:49:46;27.20;46.80
44729;DHT22;30457;53.590;9.922;2023-08-24T21:54:12;27.10;46.80
44729;DHT22;30457;53.590;9.922;2023-08-24T21:58:37;27.10;47.20
44729;DHT22;30457;53.590;9.922;2023-08-24T22:03:03;27.00;47.30
44729;DHT22;30457;53.590;9.922;2023-08-24T22:07:29;27.00;47.60
44729;DHT22;30457;53.590;9.922;2023-08-24T22:11:54;26.90;47.80
44729;DHT22;30457;53.590;9.922;2023-08-24T22:16:25;26.90;48.00
44729;DHT22;30457;53.590;9.922;2023-08-24T22:20:51;26.90;48.10
44729;DHT22;30457;53.590;9.922;2023-08-24T22:25:16;26.80;48.10
44729;DHT22;30457;53.590;9.922;2023-08-24T22:29:42;26.70;48.30
44729;DHT22;30457;53.590;9.922;2023-08-24T22:34:08;26.60;48.30
44729;DHT22;30457;53.590;9.922;2023-08-24T22:38:33;26.50;48.50
44729;DHT22;30457;53.590;9.922;2023-08-24T22:42:59;26.50;48.50
44729;DHT22;30457;53.590;9.922;2023-08-24T22:47:26;26.40;48.60
44729;DHT22;30457;53.590;9.922;2023-08-24T22:51:51;26.40;48.80
44729;DHT22;30457;53.590;9.922;2023-08-24T22:56:17;26.30;49.00
44729;DHT22;30457;53.590;9.922;2023-08-24T23:00:42;26.20;49.20
44729;DHT22;30457;53.590;9.922;2023-08-24T23:05:08;26.20;49.30
44729;DHT22;30457;53.590;9.922;2023-08-24T23:09:35;26.10;49.10
44729;DHT22;30457;53.590;9.922;2023-08-24T23:14:01;26.00;49.40
44729;DHT22;30457;53.590;9.922;2023-08-24T23:18:27;26.00;49.50
44729;DHT22;30457;53.590;9.922;2023-08-24T23:22:52;25.90;49.80
44729;DHT22;30457;53.590;9.922;2023-08-24T23:27:18;25.80;49.60
44729;DHT22;30457;53.590;9.922;2023-08-24T23:31:43;25.80;50.20
44729;DHT22;30457;53.590;9.922;2023-08-24T23:36:09;25.70;50.20
44729;DHT22;30457;53.590;9.922;2023-08-24T23:40:35;25.70;50.30
44729;DHT22;30457;53.590;9.922;2023-08-24T23:45:01;25.70;50.30
44729;DHT22;30457;53.590;9.922;2023-08-24T23:49:28;25.60;50.70
44729;DHT22;30457;53.590;9.922;2023-08-24T23:53:53;25.60;50.70
44729;DHT22;30457;53.590;9.922;2023-08-24T23:58:19;25.50;50.80
